createdAt,value
2023-01-21T00:00:57.663Z,5.38
2023-01-21T00:03:24.964Z,5.38
2023-01-21T00:05:51.703Z,5.10
2023-01-21T00:08:18.484Z,5.20
2023-01-21T00:10:45.634Z,4.82
2023-01-21T00:13:12.230Z,5.50
2023-01-21T00:15:38.933Z,6.05
2023-01-21T00:18:05.722Z,5.43
2023-01-21T00:20:32.519Z,5.90
2023-01-21T00:22:59.450Z,6.32
2023-01-21T00:25:26.076Z,6.05
2023-01-21T00:27:52.681Z,6.70
2023-01-21T00:30:19.850Z,6.97
2023-01-21T00:32:46.565Z,6.13
2023-01-21T00:35:13.844Z,6.05
2023-01-21T00:37:40.486Z,6.13
2023-01-21T00:40:07.400Z,5.80
2023-01-21T00:42:33.986Z,5.30
2023-01-21T00:45:00.622Z,5.30
2023-01-21T00:47:28.079Z,5.43
2023-01-21T00:49:54.750Z,5.85
2023-01-21T00:52:21.402Z,7.05
2023-01-21T00:54:48.099Z,7.25
2023-01-21T00:57:14.894Z,7.97
2023-01-21T00:59:41.845Z,7.35
2023-01-21T01:02:09.193Z,7.82
2023-01-21T01:04:35.942Z,7.32
2023-01-21T01:07:02.820Z,7.63
2023-01-21T01:09:29.675Z,8.43
2023-01-21T01:11:56.556Z,7.75
2023-01-21T01:14:24.058Z,7.30
2023-01-21T01:16:50.806Z,7.68
2023-01-21T01:19:17.976Z,7.20
2023-01-21T01:21:44.870Z,7.05
2023-01-21T01:24:11.891Z,6.60
2023-01-21T01:26:39.970Z,7.07
2023-01-21T01:29:13.562Z,7.20
2023-01-21T01:31:40.558Z,7.60
2023-01-21T01:34:07.193Z,7.63
2023-01-21T01:36:33.842Z,7.78
2023-01-21T01:39:00.519Z,6.85
2023-01-21T01:41:29.966Z,7.25
2023-01-21T01:44:05.428Z,7.53
2023-01-21T01:46:35.597Z,7.63
2023-01-21T01:49:19.614Z,8.20
2023-01-21T01:51:51.974Z,7.25
2023-01-21T01:54:23.395Z,8.30
2023-01-21T01:56:52.998Z,7.68
2023-01-21T01:59:20.038Z,8.00
2023-01-21T02:01:46.916Z,8.93
2023-01-21T02:04:22.201Z,8.00
2023-01-21T02:06:52.227Z,8.50
2023-01-21T02:09:19.181Z,5.57
2023-01-21T02:11:46.010Z,7.47
2023-01-21T02:14:12.758Z,7.55
2023-01-21T02:16:47.682Z,8.38
2023-01-21T02:19:35.787Z,7.25
2023-01-21T02:22:31.156Z,9.07
2023-01-21T02:25:28.771Z,8.40
2023-01-21T02:28:17.396Z,7.57
2023-01-21T02:31:11.843Z,6.85
2023-01-21T02:34:06.111Z,7.40
2023-01-21T02:36:50.635Z,6.65
2023-01-21T02:39:43.010Z,6.88
2023-01-21T02:42:32.872Z,5.97
2023-01-21T02:45:04.332Z,6.53
2023-01-21T02:47:54.359Z,7.40
2023-01-21T02:50:24.400Z,6.85
2023-01-21T02:52:59.037Z,6.10
2023-01-21T02:55:30.323Z,5.45
2023-01-21T02:58:02.059Z,4.63
2023-01-21T03:01:02.605Z,5.10
2023-01-21T03:03:47.913Z,4.95
2023-01-21T03:06:46.168Z,5.15
2023-01-21T03:09:21.819Z,4.97
2023-01-21T03:12:12.969Z,5.07
2023-01-21T03:15:09.660Z,5.72
2023-01-21T03:17:41.516Z,5.03
2023-01-21T03:20:12.815Z,6.25
2023-01-21T03:22:40.046Z,7.07
2023-01-21T03:25:09.068Z,6.07
2023-01-21T03:27:39.666Z,5.80
2023-01-21T03:30:13.583Z,5.43
2023-01-21T03:32:42.299Z,4.80
2023-01-21T03:35:10.652Z,6.05
2023-01-21T03:37:43.089Z,5.78
2023-01-21T03:40:23.965Z,4.90
2023-01-21T03:42:52.598Z,5.47
2023-01-21T03:45:33.578Z,5.30
2023-01-21T03:48:11.483Z,5.40
2023-01-21T03:50:43.130Z,4.95
2023-01-21T03:53:10.046Z,5.90
2023-01-21T03:55:36.778Z,6.05
2023-01-21T03:58:03.438Z,5.82
2023-01-21T04:00:30.067Z,5.75
2023-01-21T04:02:56.689Z,5.80
2023-01-21T04:05:23.400Z,5.57
2023-01-21T04:07:50.048Z,5.90
2023-01-21T04:10:17.664Z,5.85
2023-01-21T04:12:44.451Z,7.32
2023-01-21T04:15:11.655Z,6.88
2023-01-21T04:17:38.296Z,5.60
2023-01-21T04:20:06.047Z,6.35
2023-01-21T04:22:32.653Z,6.47
2023-01-21T04:24:59.235Z,6.80
2023-01-21T04:27:25.807Z,6.68
2023-01-21T04:29:52.435Z,6.45
2023-01-21T04:32:19.117Z,6.80
2023-01-21T04:34:45.724Z,6.20
2023-01-21T04:37:12.398Z,6.80
2023-01-21T04:39:38.948Z,6.05
2023-01-21T04:42:06.633Z,6.82
2023-01-21T04:44:33.184Z,6.68
2023-01-21T04:46:59.781Z,6.10
2023-01-21T04:49:26.382Z,5.65
2023-01-21T04:51:53.001Z,5.57
2023-01-21T04:54:19.560Z,6.15
2023-01-21T04:56:46.117Z,6.45
2023-01-21T04:59:12.787Z,5.50
2023-01-21T05:01:39.407Z,5.57
2023-01-21T05:04:06.017Z,4.60
2023-01-21T05:06:32.618Z,4.55
2023-01-21T05:08:59.237Z,4.68
2023-01-21T05:11:25.810Z,4.75
2023-01-21T05:13:52.482Z,5.70
2023-01-21T05:16:19.064Z,5.72
2023-01-21T05:18:46.820Z,4.80
2023-01-21T05:21:13.580Z,4.93
2023-01-21T05:23:40.270Z,5.65
2023-01-21T05:26:06.969Z,5.55
2023-01-21T05:28:33.581Z,6.45
2023-01-21T05:31:01.815Z,6.05
2023-01-21T05:33:32.938Z,5.40
2023-01-21T05:36:00.696Z,6.47
2023-01-21T05:38:27.963Z,7.18
2023-01-21T05:41:02.721Z,7.00
2023-01-21T05:43:29.676Z,7.22
2023-01-21T05:45:56.836Z,6.57
2023-01-21T05:48:23.852Z,6.50
2023-01-21T05:50:50.798Z,7.38
2023-01-21T05:53:17.482Z,7.40
2023-01-21T05:55:44.119Z,7.53
2023-01-21T05:58:10.885Z,7.22
2023-01-21T06:00:37.617Z,7.10
2023-01-21T06:03:04.642Z,7.60
2023-01-21T06:05:31.267Z,7.40
2023-01-21T06:07:57.801Z,7.15
2023-01-21T06:10:24.488Z,8.68
2023-01-21T06:12:54.178Z,8.18
2023-01-21T06:15:20.715Z,7.47
2023-01-21T06:17:47.697Z,7.43
2023-01-21T06:20:14.735Z,7.55
2023-01-21T06:22:41.406Z,6.45
2023-01-21T06:25:08.339Z,6.95
2023-01-21T06:27:37.210Z,6.40
2023-01-21T06:30:08.615Z,7.13
2023-01-21T06:32:35.841Z,5.35
2023-01-21T06:35:03.026Z,5.57
2023-01-21T06:37:30.254Z,5.43
2023-01-21T06:39:56.981Z,5.32
2023-01-21T06:42:23.607Z,5.47
2023-01-21T06:44:50.247Z,6.15
2023-01-21T06:47:16.874Z,5.90
2023-01-21T06:49:43.488Z,5.60
2023-01-21T06:52:10.091Z,5.47
2023-01-21T06:54:36.789Z,5.80
2023-01-21T06:57:03.440Z,5.03
2023-01-21T06:59:30.071Z,5.95
2023-01-21T07:01:59.039Z,5.18
2023-01-21T07:04:26.908Z,6.82
2023-01-21T07:06:53.703Z,5.55
2023-01-21T07:09:21.004Z,5.72
2023-01-21T07:11:47.843Z,5.70
2023-01-21T07:14:14.410Z,6.07
2023-01-21T07:16:41.050Z,6.15
2023-01-21T07:19:07.637Z,5.40
2023-01-21T07:21:34.561Z,5.63
2023-01-21T07:24:01.355Z,6.03
2023-01-21T07:26:27.978Z,5.97
2023-01-21T07:28:54.607Z,5.07
2023-01-21T07:31:21.374Z,5.72
2023-01-21T07:33:48.050Z,5.28
2023-01-21T07:36:14.682Z,5.28
2023-01-21T07:38:41.318Z,6.45
2023-01-21T07:41:07.946Z,5.13
2023-01-21T07:43:34.605Z,5.72
2023-01-21T07:46:01.587Z,5.97
2023-01-21T07:48:28.195Z,5.90
2023-01-21T07:50:59.623Z,6.15
2023-01-21T07:53:26.974Z,6.05
2023-01-21T07:55:53.684Z,6.75
2023-01-21T07:58:20.750Z,5.85
2023-01-21T08:00:47.315Z,6.00
2023-01-21T08:03:14.920Z,5.88
2023-01-21T08:05:41.481Z,6.50
2023-01-21T08:08:08.427Z,5.90
2023-01-21T08:10:35.205Z,5.97
2023-01-21T08:13:02.076Z,5.75
2023-01-21T08:15:28.813Z,5.82
2023-01-21T08:17:56.549Z,6.07
2023-01-21T08:20:23.701Z,5.90
2023-01-21T08:22:50.516Z,5.70
2023-01-21T08:25:17.683Z,5.97
2023-01-21T08:27:44.917Z,5.57
2023-01-21T08:30:11.979Z,6.53
2023-01-21T08:32:38.613Z,6.40
2023-01-21T08:35:06.233Z,6.35
2023-01-21T08:37:32.878Z,6.88
2023-01-21T08:39:59.467Z,5.07
2023-01-21T08:42:26.160Z,6.07
2023-01-21T08:44:54.003Z,6.60
2023-01-21T08:47:20.675Z,6.30
2023-01-21T08:49:47.285Z,6.38
2023-01-21T08:52:14.130Z,5.95
2023-01-21T08:54:41.566Z,6.40
2023-01-21T08:57:08.186Z,6.90
2023-01-21T08:59:35.017Z,6.57
2023-01-21T09:02:01.690Z,6.20
2023-01-21T09:04:28.270Z,5.80
2023-01-21T09:06:54.908Z,5.75
2023-01-21T09:09:21.577Z,5.70
2023-01-21T09:11:48.184Z,6.63
2023-01-21T09:14:14.800Z,6.03
2023-01-21T09:16:41.635Z,6.28
2023-01-21T09:19:08.233Z,6.68
2023-01-21T09:21:34.913Z,6.28
2023-01-21T09:24:02.695Z,6.38
2023-01-21T09:26:29.363Z,6.68
2023-01-21T09:29:00.520Z,6.38
2023-01-21T09:31:29.594Z,6.50
2023-01-21T09:33:59.611Z,6.35
2023-01-21T09:36:28.801Z,6.28
2023-01-21T09:38:56.363Z,6.05
2023-01-21T09:41:28.990Z,6.75
2023-01-21T09:44:20.362Z,6.13
2023-01-21T09:46:52.035Z,6.65
2023-01-21T09:49:25.933Z,5.68
2023-01-21T09:52:07.359Z,6.22
2023-01-21T09:54:36.543Z,6.35
2023-01-21T09:57:15.297Z,6.00
2023-01-21T09:59:57.142Z,6.07
2023-01-21T10:02:44.008Z,5.60
2023-01-21T10:05:36.000Z,5.35
2023-01-21T10:08:29.992Z,5.50
2023-01-21T10:11:05.669Z,5.85
2023-01-21T10:13:41.515Z,5.25
2023-01-21T10:16:11.164Z,6.20
2023-01-21T10:18:42.391Z,6.97
2023-01-21T10:21:30.888Z,6.57
2023-01-21T10:24:04.167Z,6.03
2023-01-21T10:26:33.773Z,6.47
2023-01-21T10:29:01.676Z,5.13
2023-01-21T10:31:53.518Z,6.18
2023-01-21T10:34:20.351Z,6.30
2023-01-21T10:37:08.440Z,6.00
2023-01-21T10:39:40.912Z,5.70
2023-01-21T10:42:10.321Z,5.72
2023-01-21T10:44:57.365Z,6.50
2023-01-21T10:47:36.825Z,5.30
2023-01-21T10:50:22.074Z,5.80
2023-01-21T10:52:59.116Z,5.38
2023-01-21T10:55:28.652Z,5.15
2023-01-21T10:58:15.424Z,5.40
2023-01-21T11:00:47.394Z,5.63
2023-01-21T11:03:23.690Z,7.00
2023-01-21T11:05:50.287Z,5.88
2023-01-21T11:08:21.653Z,6.22
2023-01-21T11:10:53.200Z,5.53
2023-01-21T11:13:19.810Z,5.68
2023-01-21T11:15:51.783Z,5.80
2023-01-21T11:18:31.446Z,6.50
2023-01-21T11:21:01.637Z,6.47
2023-01-21T11:23:39.309Z,5.25
2023-01-21T11:26:15.771Z,5.78
2023-01-21T11:28:42.409Z,5.20
2023-01-21T11:31:27.400Z,5.47
2023-01-21T11:33:55.680Z,5.43
2023-01-21T11:36:22.307Z,5.45
2023-01-21T11:39:01.147Z,5.63
2023-01-21T11:41:28.266Z,5.95
2023-01-21T11:44:10.578Z,6.75
2023-01-21T11:46:41.101Z,5.97
2023-01-21T11:51:35.672Z,6.15
2023-01-21T11:54:16.053Z,6.47
2023-01-21T11:56:55.971Z,6.75
2023-01-21T11:59:35.401Z,5.47
2023-01-21T12:02:16.534Z,6.22
2023-01-21T12:04:47.857Z,6.35
2023-01-21T12:07:20.523Z,6.90
2023-01-21T12:10:08.793Z,6.00
2023-01-21T12:12:35.323Z,6.32
2023-01-21T12:15:17.122Z,6.03
2023-01-21T12:18:11.535Z,6.00
2023-01-21T12:20:45.876Z,6.20
2023-01-21T12:23:15.464Z,6.22
2023-01-21T12:25:58.335Z,6.07
2023-01-21T12:28:57.897Z,5.78
2023-01-21T12:31:44.169Z,5.13
2023-01-21T12:34:44.451Z,5.50
2023-01-21T12:37:29.677Z,4.00
2023-01-21T12:39:59.557Z,4.75
2023-01-21T12:42:34.715Z,5.10
2023-01-21T12:45:14.483Z,5.10
2023-01-21T12:48:06.959Z,5.30
2023-01-21T12:50:41.605Z,5.40
2023-01-21T12:53:33.578Z,5.40
2023-01-21T12:56:09.182Z,4.70
2023-01-21T12:58:55.151Z,5.35
2023-01-21T13:01:44.373Z,5.03
2023-01-21T13:04:36.832Z,5.13
2023-01-21T13:07:25.632Z,5.18
2023-01-21T13:10:17.631Z,5.55
2023-01-21T13:12:49.855Z,5.15
2023-01-21T13:15:23.990Z,4.75
2023-01-21T13:17:56.829Z,4.95
2023-01-21T13:20:24.158Z,5.15
2023-01-21T13:23:35.673Z,4.47
2023-01-21T13:26:12.882Z,5.50
2023-01-21T13:28:49.529Z,5.43
2023-01-21T13:31:28.419Z,5.53
2023-01-21T13:34:13.532Z,6.28
2023-01-21T13:36:59.040Z,5.60
2023-01-21T13:39:39.262Z,5.60
2023-01-21T13:42:24.877Z,5.63
2023-01-21T13:45:11.344Z,6.20
2023-01-21T13:47:56.132Z,6.10
2023-01-21T13:50:37.544Z,6.80
2023-01-21T13:53:30.973Z,7.15
2023-01-21T13:56:07.731Z,5.70
2023-01-21T13:58:34.468Z,6.93
2023-01-21T14:01:14.768Z,5.60
2023-01-21T14:06:24.564Z,6.10
2023-01-21T14:09:04.900Z,7.43
2023-01-21T14:11:38.145Z,5.95
2023-01-21T14:14:41.488Z,6.28
2023-01-21T14:17:23.425Z,5.85
2023-01-21T14:20:09.705Z,6.35
2023-01-21T14:23:19.968Z,5.85
2023-01-21T14:26:04.810Z,5.47
2023-01-21T14:28:55.983Z,6.15
2023-01-21T14:31:31.348Z,5.63
2023-01-21T14:34:04.760Z,5.40
2023-01-21T14:36:50.316Z,5.38
2023-01-21T14:39:19.943Z,5.60
2023-01-21T14:42:04.987Z,4.50
2023-01-21T14:44:34.577Z,5.95
2023-01-21T14:47:15.968Z,4.88
2023-01-21T14:49:48.481Z,5.43
2023-01-21T14:52:18.552Z,5.45
2023-01-21T14:54:46.408Z,4.97
2023-01-21T14:57:34.221Z,5.10
2023-01-21T15:00:14.067Z,5.30
2023-01-21T15:02:44.693Z,4.82
2023-01-21T15:07:44.903Z,4.88
2023-01-21T15:10:41.274Z,4.55
2023-01-21T15:13:33.756Z,4.35
2023-01-21T15:16:12.990Z,4.55
2023-01-21T15:18:48.359Z,4.85
2023-01-21T15:21:34.684Z,5.78
2023-01-21T15:24:26.712Z,5.22
2023-01-21T15:27:18.256Z,5.55
2023-01-21T15:29:53.981Z,5.50
2023-01-21T15:32:28.584Z,4.30
2023-01-21T15:34:59.349Z,4.78
2023-01-21T15:37:27.636Z,4.85
2023-01-21T15:40:01.387Z,4.75
2023-01-21T15:42:43.375Z,4.65
2023-01-21T15:45:26.770Z,5.18
2023-01-21T15:48:12.935Z,5.82
2023-01-21T15:50:45.779Z,5.68
2023-01-21T15:53:33.820Z,5.22
2023-01-21T15:56:13.692Z,5.03
2023-01-21T15:58:50.994Z,4.15
2023-01-21T16:01:32.235Z,4.55
2023-01-21T16:04:26.858Z,4.65
2023-01-21T16:07:05.765Z,4.53
2023-01-21T16:09:32.500Z,4.13
2023-01-21T16:12:16.515Z,5.20
2023-01-21T16:14:56.122Z,5.80
2023-01-21T16:17:51.749Z,3.38
2023-01-21T16:20:19.688Z,4.18
2023-01-21T16:22:52.219Z,4.05
2023-01-21T16:25:23.307Z,5.03
2023-01-21T16:27:52.811Z,3.33
2023-01-21T16:30:27.339Z,2.92
2023-01-21T16:33:14.965Z,2.90
2023-01-21T16:36:08.725Z,2.88
2023-01-21T16:38:37.501Z,2.90
2023-01-21T16:41:07.196Z,2.63
2023-01-21T16:43:36.585Z,3.33
2023-01-21T16:46:05.966Z,3.65
2023-01-21T16:48:34.143Z,3.22
2023-01-21T16:51:01.607Z,2.70
2023-01-21T16:53:28.310Z,2.42
2023-01-21T16:55:59.729Z,1.98
2023-01-21T16:58:32.469Z,2.42
2023-01-21T17:01:06.113Z,2.17
2023-01-21T17:03:33.340Z,1.65
2023-01-21T17:06:07.400Z,1.40
2023-01-21T17:08:34.976Z,1.67
2023-01-21T17:11:09.711Z,1.45
2023-01-21T17:13:40.849Z,1.73
2023-01-21T17:16:26.735Z,1.45
2023-01-21T17:19:00.358Z,1.33
2023-01-21T17:21:36.795Z,1.30
2023-01-21T17:24:07.552Z,1.63
2023-01-21T17:26:45.915Z,1.50
2023-01-21T17:29:18.408Z,0.93
2023-01-21T17:31:46.053Z,1.42
2023-01-21T17:34:15.705Z,1.08
2023-01-21T17:36:44.324Z,1.07
2023-01-21T17:39:12.358Z,0.97
2023-01-21T17:41:45.448Z,0.93
2023-01-21T17:44:18.421Z,0.90
2023-01-21T17:46:51.144Z,1.00
2023-01-21T17:49:23.410Z,1.00
2023-01-21T17:51:53.922Z,0.70
2023-01-21T17:54:22.681Z,1.13
2023-01-21T17:57:00.292Z,1.00
2023-01-21T17:59:34.613Z,0.90
2023-01-21T18:02:02.767Z,0.70
2023-01-21T18:04:29.449Z,0.85
2023-01-21T18:06:56.900Z,0.70
2023-01-21T18:09:26.279Z,0.75
2023-01-21T18:11:55.810Z,0.50
2023-01-21T18:14:25.074Z,0.75
2023-01-21T18:16:53.633Z,0.80
2023-01-21T18:19:34.267Z,0.70
2023-01-21T18:24:28.689Z,0.70
2023-01-21T18:26:57.230Z,0.80
2023-01-21T18:29:28.035Z,0.63
2023-01-21T18:31:54.609Z,0.65
2023-01-21T18:34:21.383Z,1.30
2023-01-21T18:36:48.155Z,0.60
2023-01-21T18:39:18.447Z,0.75
2023-01-21T18:41:46.076Z,0.60
2023-01-21T18:44:13.301Z,0.60
2023-01-21T18:46:42.344Z,0.77
2023-01-21T18:49:14.383Z,0.80
2023-01-21T18:51:41.113Z,0.63
2023-01-21T18:54:07.979Z,0.57
2023-01-21T18:56:36.298Z,0.40
2023-01-21T18:59:03.296Z,0.52
2023-01-21T19:01:30.018Z,0.60
2023-01-21T19:03:56.655Z,0.70
2023-01-21T19:06:24.011Z,0.88
2023-01-21T19:08:50.921Z,0.80
2023-01-21T19:11:18.014Z,1.10
2023-01-21T19:13:44.729Z,1.60
2023-01-21T19:16:19.888Z,1.52
2023-01-21T19:18:46.593Z,1.35
2023-01-21T19:21:13.364Z,1.40
2023-01-21T19:23:40.400Z,1.02
2023-01-21T19:26:08.558Z,1.40
2023-01-21T19:28:35.438Z,1.10
2023-01-21T19:31:02.195Z,1.50
2023-01-21T19:33:28.875Z,1.00
2023-01-21T19:36:02.851Z,1.23
2023-01-21T19:38:29.727Z,1.13
2023-01-21T19:40:56.347Z,1.10
2023-01-21T19:43:23.323Z,1.17
2023-01-21T19:45:52.134Z,1.08
2023-01-21T19:48:20.837Z,1.20
2023-01-21T19:50:48.442Z,1.10
2023-01-21T19:53:17.359Z,1.50
2023-01-21T19:55:46.103Z,1.45
2023-01-21T19:58:19.722Z,1.63
2023-01-21T20:00:51.095Z,1.80
2023-01-21T20:03:19.375Z,1.40
2023-01-21T20:05:48.070Z,1.60
2023-01-21T20:08:20.747Z,1.55
2023-01-21T20:10:47.415Z,1.60
2023-01-21T20:13:15.334Z,1.80
2023-01-21T20:15:44.960Z,2.33
2023-01-21T20:18:20.131Z,2.10
2023-01-21T20:20:46.849Z,1.58
2023-01-21T20:23:15.902Z,1.80
2023-01-21T20:25:44.100Z,1.98
2023-01-21T20:28:21.521Z,1.67
2023-01-21T20:30:49.415Z,1.90
2023-01-21T20:33:18.502Z,1.70
2023-01-21T20:35:54.748Z,1.85
2023-01-21T20:38:30.003Z,1.58
2023-01-21T20:41:00.999Z,1.63
2023-01-21T20:43:29.140Z,2.10
2023-01-21T20:46:00.679Z,1.60
2023-01-21T20:48:30.728Z,1.70
2023-01-21T20:50:57.346Z,2.15
2023-01-21T20:53:23.996Z,2.20
2023-01-21T20:55:53.818Z,2.20
2023-01-21T20:58:22.143Z,1.67
2023-01-21T21:00:49.318Z,2.13
2023-01-21T21:03:18.047Z,1.83
2023-01-21T21:05:46.284Z,2.08
2023-01-21T21:08:21.671Z,1.90
2023-01-21T21:10:50.780Z,1.95
2023-01-21T21:13:17.675Z,2.17
2023-01-21T21:15:46.550Z,1.92
2023-01-21T21:18:14.374Z,2.08
2023-01-21T21:20:41.393Z,1.77
2023-01-21T21:23:13.709Z,1.77
2023-01-21T21:25:43.559Z,1.80
2023-01-21T21:28:12.727Z,2.30
2023-01-21T21:30:39.372Z,2.05
2023-01-21T21:33:07.963Z,1.70
2023-01-21T21:35:36.527Z,2.45
2023-01-21T21:38:06.064Z,2.13
2023-01-21T21:40:34.642Z,2.38
2023-01-21T21:43:20.530Z,2.08
2023-01-21T21:46:06.033Z,1.88
2023-01-21T21:48:39.261Z,1.83
2023-01-21T21:51:07.825Z,1.98
2023-01-21T21:53:34.519Z,1.77
2023-01-21T21:56:11.259Z,1.88
2023-01-21T21:58:37.868Z,1.60
2023-01-21T22:01:16.406Z,1.67
2023-01-21T22:03:43.748Z,1.92
2023-01-21T22:06:11.821Z,1.50
2023-01-21T22:08:40.899Z,1.67
2023-01-21T22:11:10.546Z,1.70
2023-01-21T22:13:40.207Z,1.40
2023-01-21T22:16:09.791Z,2.10
2023-01-21T22:18:36.621Z,1.80
2023-01-21T22:21:05.927Z,1.83
2023-01-21T22:23:35.232Z,1.73
2023-01-21T22:26:03.509Z,1.63
2023-01-21T22:28:30.275Z,1.88
2023-01-21T22:31:06.443Z,2.15
2023-01-21T22:33:34.162Z,2.13
2023-01-21T22:36:05.062Z,2.25
2023-01-21T22:38:32.873Z,2.10
2023-01-21T22:40:59.515Z,2.00
2023-01-21T22:43:27.081Z,1.92
2023-01-21T22:45:55.977Z,1.80
2023-01-21T22:48:23.167Z,2.35
2023-01-21T22:50:57.983Z,1.85
2023-01-21T22:53:25.739Z,1.67
2023-01-21T22:56:00.910Z,2.38
2023-01-21T22:58:29.467Z,1.73
2023-01-21T23:00:56.756Z,2.20
2023-01-21T23:03:24.268Z,2.17
2023-01-21T23:05:51.881Z,2.00
2023-01-21T23:08:19.501Z,1.80
2023-01-21T23:10:47.041Z,1.80
2023-01-21T23:13:15.024Z,1.70
2023-01-21T23:15:46.106Z,1.80
2023-01-21T23:18:14.793Z,2.05
2023-01-21T23:20:43.192Z,1.95
2023-01-21T23:23:11.826Z,2.08
2023-01-21T23:25:42.904Z,2.05
2023-01-21T23:28:11.459Z,2.10
2023-01-21T23:30:38.051Z,1.85
2023-01-21T23:33:04.871Z,2.00
2023-01-21T23:35:34.199Z,1.88
2023-01-21T23:38:02.494Z,2.13
2023-01-21T23:40:29.149Z,1.80
2023-01-21T23:42:55.722Z,2.20
2023-01-21T23:45:22.434Z,1.55
2023-01-21T23:47:49.028Z,2.03
2023-01-21T23:50:16.115Z,2.13
2023-01-21T23:52:42.919Z,1.60
2023-01-21T23:55:10.849Z,1.90
2023-01-21T23:57:37.552Z,1.85
